Frogtown, Pennsylvania
Current Conditions -  °F | °C
As of 3:08 AM on Monday 24 Nov 2014 (Local Time) from KCXY Reporting Station
Light Rain Light Rain  
Wind Chill: 60°   Ceiling: 1100
Heat Index: 60°   Visibility: 7mi
Dew Point: 56°   Wind: 9mph
Humidity: 86%   Direction: 180°S
Pressure: 29.63"   Gusts: 22mph
Location:  40.2034°N, 76.87°W
Report Text: KCXY 240808Z AUTO 18008G19KT 7SM -RA OVC011 16/13 A2963 RMK AO2 P0000 T01560133
Loading
Personal Weather Stations






























Interactive Weather Map New forecast layout! Learn more

10-Day Weather Forecast

Advertisements
Track Severe Weather on mobile